Monday, March 02, 2015
15:00 UTC
  |  Log In   |  Register Free
Airport Search:

Faribault Municipal Airport
(KFBL)

Faribault Municipal Airport Diagram
No Airport Diagram Available

FAA data valid effective January 08, 2015 - March 05, 2015 (unless otherwise noted).

 
 
 
 
 
 
 
 
 
 
 
 
 
 

Current Aviation Weather for Faribault Municipal Airport (KFBL)

The most recent METAR observation for KFBL was updated at: 1411
METAR Summary (Translated METAR)
KFBL
021354Z AUTO 00000KT 7SM CLR M16/M18 A3047 RMK AO2
KOWA
021355Z AUTO 00000KT 7SM CLR M14/M16 A3047 RMK AO2
(12.5 nm SE from KFBL)
KSYN
021414Z AUTO 20003KT 10SM CLR M13/M15 A3048 RMK AO2 T11311149
(15.5 nm NE from KFBL)
TAF
No TAF information found within 50 nm of KFBL
  Airport Weather Conditions for KFBL

 Current Weather at FBL
3° F
Fair
North winds at 0.0 mph
FBL NOAA Radar

Pressure: 30.47 in
Humidity: 85%
Wind: Calm
Dew Point: -0.4°F
Visibility: 7.00 mi


Airport Weather Forecast for KFBL

Translated METAR and TAF for KFBL
Translated METAR for KFBL (1500 UTC 02 March 2015)
found at http://aviationweather.gov/adds/metars/
 
METAR text: KFBL 021454Z AUTO 00000KT 10SM CLR M12/M14 A3050 RMK AO2
Conditions at: KFBL (FARIBAULT MUNI , MN, US) observed 1454 UTC 02 March 2015
Temperature: -12.0°C (10°F)
Dewpoint: -14.0°C (7°F) [RH = 85%]
Pressure (altimeter): 30.50 inches Hg (1032.9 mb)
Winds: calm
Visibility: 10 or more miles (16+ km)
Ceiling: at least 12,000 feet AGL
Clouds: sky clear below 12,000 feet AGL
Weather: automated observation with no human augmentation;
there may or may not be significant weather present at this time
Translated TAF for KFBL

There is no translated TAF available for this airport

Find All Airport Services Find A Hotel Find A Rental Car Find A Golf Course Find A Restaurant $100 Hamburger



FBO's on the Field
FBO Company Facility Photos Services Transportation Aviation Fuel Prices: Prices include tax
Catering Weather Repair Courtesy Rental Type 100LL JetA JetA+ MOGAS 8087
 
Quality Aviation

This FBO has not yet been rated
FS:Independent
Last Updated: Jan-27
Login to update fuel prices
SS:
Contact Quality AviationMore FBO Information
 
Add another FBO Facility Photos Catering Weather Repair Courtesy Rental Type 100LL JetA JetA+ MOGAS 8087
Services Transportation Aviation Fuel Prices: Prices include tax


model-print
model-print
model-print
model-print